Pagina principale
METAR-TAF:

METAR-TAF

Aeroporti :

Alpnach, Svizzera

latitudine: 46-56-19N, longitudine: 8-17-03E, altezza: 440 m

Osservazione

Il bollettino è stato emesso 35 minuti fa, alle 07:50 UTC
Vento 4 kt da sud/sud-ovest
Temperature 6°C
Umidità 87%
Pressione 1026 hPa
Visibilità 10 km o più
Nuvoloso ad un'altezza di 900 ft
Cielo coperto ad un'altezza di 1300 ft

METAR: LSMA 160750Z 20004KT 9999 BKN009 OVC013 06/04 Q1026 RMK GRN

Ora: 09:25 (08:25 UTC)


TAF: mancante

Osservazioni e previsioni meteorologiche di più di 4000 aeroporti (messaggi METAR e TAF).

Le stazioni disponibili sono rappresentate dai dischi gialli e rossi sulla carta.

Puntare il mouse per vedere il nome della stazione.

Clicca sopra per visualizzare le osservazioni e previsioni meteorologiche.

Per cambiare la mappa : fare clic sui pulsanti verdi con una croce nera per ingrandire, il pulsante verde con un trattino per diminuire, o sulla freccia verde per le mappe adiacenti.


METAR-TAF: